createdAt,value
2023-02-11T00:00:57.990Z,23.00
2023-02-11T00:03:23.978Z,23.33
2023-02-11T00:05:57.075Z,22.63
2023-02-11T00:08:22.787Z,23.40
2023-02-11T00:10:51.603Z,22.52
2023-02-11T00:13:17.437Z,21.75
2023-02-11T00:15:43.166Z,22.27
2023-02-11T00:18:08.901Z,23.73
2023-02-11T00:20:34.613Z,20.67
2023-02-11T00:23:00.340Z,21.42
2023-02-11T00:25:26.080Z,21.58
2023-02-11T00:27:51.782Z,21.08
2023-02-11T00:30:17.558Z,23.42
2023-02-11T00:32:43.332Z,22.30
2023-02-11T00:35:09.054Z,24.73
2023-02-11T00:37:35.856Z,21.60
2023-02-11T00:40:04.457Z,21.50
2023-02-11T00:42:32.425Z,20.10
2023-02-11T00:44:58.181Z,21.02
2023-02-11T00:47:23.921Z,19.95
2023-02-11T00:49:49.650Z,21.63
2023-02-11T00:52:15.414Z,19.77
2023-02-11T00:54:41.218Z,21.08
2023-02-11T00:57:06.927Z,21.67
2023-02-11T00:59:32.649Z,21.25
2023-02-11T01:01:58.374Z,19.15
2023-02-11T01:04:24.135Z,20.58
2023-02-11T01:06:49.865Z,21.75
2023-02-11T01:09:15.600Z,19.50
2023-02-11T01:11:41.308Z,21.00
2023-02-11T01:14:07.086Z,20.58
2023-02-11T01:16:32.827Z,21.27
2023-02-11T01:18:58.619Z,19.88
2023-02-11T01:21:24.899Z,20.92
2023-02-11T01:23:51.578Z,20.73
2023-02-11T01:26:17.311Z,19.55
2023-02-11T01:28:43.125Z,19.60
2023-02-11T01:31:08.935Z,20.33
2023-02-11T01:33:34.760Z,20.88
2023-02-11T01:36:04.263Z,21.20
2023-02-11T01:38:30.679Z,21.77
2023-02-11T01:40:58.245Z,20.40
2023-02-11T01:43:24.992Z,20.95
2023-02-11T01:45:53.791Z,19.45
2023-02-11T01:48:26.699Z,21.25
2023-02-11T01:50:54.279Z,20.48
2023-02-11T01:53:39.111Z,20.27
2023-02-11T01:56:23.656Z,21.95
2023-02-11T01:58:50.852Z,20.23
2023-02-11T02:01:18.684Z,20.42
2023-02-11T02:03:45.598Z,20.75
2023-02-11T02:06:14.435Z,20.05
2023-02-11T02:08:43.182Z,21.38
2023-02-11T02:11:08.910Z,19.67
2023-02-11T02:13:35.327Z,21.40
2023-02-11T02:16:09.817Z,21.95
2023-02-11T02:18:48.254Z,20.48
2023-02-11T02:21:32.796Z,21.38
2023-02-11T02:24:17.043Z,21.15
2023-02-11T02:26:51.735Z,21.70
2023-02-11T02:29:20.258Z,21.27
2023-02-11T02:31:54.114Z,22.10
2023-02-11T02:34:32.121Z,22.23
2023-02-11T02:37:07.507Z,22.25
2023-02-11T02:39:35.386Z,20.77
2023-02-11T02:42:01.314Z,22.38
2023-02-11T02:44:27.489Z,24.10
2023-02-11T02:46:53.321Z,24.13
2023-02-11T02:49:19.074Z,21.85
2023-02-11T02:51:58.308Z,21.23
2023-02-11T02:54:29.592Z,23.98
2023-02-11T02:57:18.034Z,24.50
2023-02-11T03:00:02.739Z,22.42
2023-02-11T03:02:34.247Z,21.17
2023-02-11T03:05:00.557Z,22.83
2023-02-11T03:07:37.366Z,25.23
2023-02-11T03:10:06.147Z,22.25
2023-02-11T03:12:33.081Z,23.25
2023-02-11T03:15:00.478Z,23.98
2023-02-11T03:17:27.924Z,23.92
2023-02-11T03:19:54.563Z,22.52
2023-02-11T03:22:24.121Z,25.25
2023-02-11T03:24:50.063Z,22.90
2023-02-11T03:27:26.995Z,24.60
2023-02-11T03:30:00.358Z,23.48
2023-02-11T03:32:35.622Z,24.38
2023-02-11T03:35:05.760Z,25.80
2023-02-11T03:37:40.281Z,25.38
2023-02-11T03:40:07.559Z,23.98
2023-02-11T03:42:40.325Z,24.10
2023-02-11T03:45:08.674Z,23.52
2023-02-11T03:47:35.770Z,25.45
2023-02-11T03:50:03.887Z,24.77
2023-02-11T03:52:30.085Z,24.20
2023-02-11T03:54:57.494Z,24.55
2023-02-11T03:57:23.533Z,26.13
2023-02-11T03:59:50.331Z,26.20
2023-02-11T04:02:16.207Z,24.60
2023-02-11T04:04:41.947Z,24.92
2023-02-11T04:07:08.490Z,27.05
2023-02-11T04:09:36.152Z,27.50
2023-02-11T04:12:02.165Z,25.83
2023-02-11T04:14:27.910Z,25.75
2023-02-11T04:16:53.623Z,25.50
2023-02-11T04:19:19.363Z,25.55
2023-02-11T04:21:45.080Z,28.35
2023-02-11T04:24:10.796Z,25.13
2023-02-11T04:26:36.478Z,25.33
2023-02-11T04:29:02.313Z,27.58
2023-02-11T04:31:28.180Z,26.02
2023-02-11T04:33:54.003Z,25.85
2023-02-11T04:36:19.708Z,26.33
2023-02-11T04:38:45.410Z,26.10
2023-02-11T04:41:11.128Z,28.77
2023-02-11T04:43:36.871Z,26.42
2023-02-11T04:46:02.633Z,28.42
2023-02-11T04:48:28.360Z,28.30
2023-02-11T04:50:54.088Z,30.08
2023-02-11T04:53:19.884Z,28.17
2023-02-11T04:55:48.462Z,29.10
2023-02-11T04:58:14.340Z,28.08
2023-02-11T05:00:40.112Z,28.95
2023-02-11T05:03:05.805Z,27.02
2023-02-11T05:05:31.558Z,26.75
2023-02-11T05:07:57.333Z,25.83
2023-02-11T05:10:23.106Z,26.55
2023-02-11T05:12:49.040Z,27.42
2023-02-11T05:15:15.026Z,28.48
2023-02-11T05:17:40.758Z,27.30
2023-02-11T05:20:06.659Z,26.60
2023-02-11T05:22:32.375Z,27.45
2023-02-11T05:24:58.088Z,29.58
2023-02-11T05:27:23.822Z,29.23
2023-02-11T05:29:49.557Z,29.67
2023-02-11T05:32:15.284Z,29.95
2023-02-11T05:34:41.017Z,27.90
2023-02-11T05:37:06.801Z,31.05
2023-02-11T05:39:32.529Z,30.50
2023-02-11T05:41:58.300Z,29.85
2023-02-11T05:44:24.005Z,29.40
2023-02-11T05:46:49.733Z,28.98
2023-02-11T05:49:16.075Z,29.30
2023-02-11T05:51:41.788Z,29.15
2023-02-11T05:54:07.519Z,30.77
2023-02-11T05:56:33.247Z,30.98
2023-02-11T05:58:59.286Z,30.25
2023-02-11T06:01:25.156Z,30.30
2023-02-11T06:03:50.954Z,30.92
2023-02-11T06:06:16.846Z,28.92
2023-02-11T06:08:42.750Z,31.77
2023-02-11T06:11:08.954Z,29.73
2023-02-11T06:13:35.162Z,32.30
2023-02-11T06:16:01.802Z,30.70
2023-02-11T06:18:28.298Z,29.77
2023-02-11T06:20:54.048Z,28.92
2023-02-11T06:23:20.120Z,31.02
2023-02-11T06:25:45.858Z,33.05
2023-02-11T06:28:11.669Z,34.05
2023-02-11T06:30:37.765Z,33.10
2023-02-11T06:33:03.878Z,31.98
2023-02-11T06:35:30.002Z,31.92
2023-02-11T06:37:55.737Z,32.45
2023-02-11T06:40:21.554Z,31.50
2023-02-11T06:42:47.300Z,31.25
2023-02-11T06:45:13.140Z,32.85
2023-02-11T06:47:39.788Z,33.75
2023-02-11T06:50:06.901Z,33.67
2023-02-11T06:52:33.083Z,32.15
2023-02-11T06:54:58.946Z,31.85
2023-02-11T06:57:24.720Z,31.17
2023-02-11T06:59:50.488Z,30.73
2023-02-11T07:02:18.468Z,30.98
2023-02-11T07:04:46.369Z,31.25
2023-02-11T07:07:12.088Z,32.85
2023-02-11T07:09:37.840Z,31.80
2023-02-11T07:12:03.697Z,32.40
2023-02-11T07:14:29.441Z,33.42
2023-02-11T07:16:55.161Z,29.75
2023-02-11T07:19:20.884Z,31.25
2023-02-11T07:21:47.989Z,32.53
2023-02-11T07:24:13.898Z,32.70
2023-02-11T07:26:40.120Z,29.30
2023-02-11T07:29:05.982Z,30.83
2023-02-11T07:31:32.707Z,32.33
2023-02-11T07:34:00.343Z,32.47
2023-02-11T07:36:27.156Z,31.40
2023-02-11T07:38:52.911Z,30.52
2023-02-11T07:41:20.327Z,30.60
2023-02-11T07:43:46.735Z,31.13
2023-02-11T07:46:19.882Z,32.83
2023-02-11T07:48:45.699Z,29.27
2023-02-11T07:51:12.966Z,28.70
2023-02-11T07:53:38.803Z,29.38
2023-02-11T07:56:05.404Z,29.77
2023-02-11T07:58:31.474Z,27.20
2023-02-11T08:01:01.645Z,29.65
2023-02-11T08:03:27.671Z,29.13
2023-02-11T08:05:53.504Z,27.92
2023-02-11T08:08:19.311Z,29.45
2023-02-11T08:10:45.130Z,28.98
2023-02-11T08:13:10.904Z,28.10
2023-02-11T08:15:36.696Z,29.67
2023-02-11T08:18:02.481Z,30.20
2023-02-11T08:20:28.416Z,27.05
2023-02-11T08:22:54.139Z,27.05
2023-02-11T08:25:19.973Z,26.75
2023-02-11T08:27:45.796Z,26.25
2023-02-11T08:30:11.839Z,27.42
2023-02-11T08:32:38.814Z,25.98
2023-02-11T08:35:07.186Z,26.83
2023-02-11T08:37:33.242Z,23.27
2023-02-11T08:39:58.990Z,26.40
2023-02-11T08:42:24.787Z,27.13
2023-02-11T08:44:50.572Z,26.15
2023-02-11T08:47:16.366Z,29.40
2023-02-11T08:49:42.167Z,27.08
2023-02-11T08:52:08.373Z,26.92
2023-02-11T08:54:34.094Z,25.20
2023-02-11T08:57:01.302Z,26.55
2023-02-11T08:59:27.146Z,27.77
2023-02-11T09:01:53.181Z,27.20
2023-02-11T09:04:19.028Z,26.58
2023-02-11T09:06:44.929Z,25.42
2023-02-11T09:09:13.049Z,26.13
2023-02-11T09:11:40.111Z,24.48
2023-02-11T09:14:06.260Z,26.67
2023-02-11T09:16:33.755Z,24.50
2023-02-11T09:19:00.322Z,26.02
2023-02-11T09:21:26.754Z,27.00
2023-02-11T09:23:52.565Z,27.40
2023-02-11T09:26:29.217Z,26.55
2023-02-11T09:28:55.586Z,23.73
2023-02-11T09:31:22.877Z,23.52
2023-02-11T09:33:49.944Z,24.13
2023-02-11T09:36:20.167Z,23.35
2023-02-11T09:38:46.311Z,25.30
2023-02-11T09:41:30.859Z,25.40
2023-02-11T09:43:57.835Z,22.90
2023-02-11T09:46:25.245Z,24.17
2023-02-11T09:48:52.547Z,23.92
2023-02-11T09:51:20.107Z,24.02
2023-02-11T09:53:49.930Z,23.63
2023-02-11T09:56:15.975Z,22.57
2023-02-11T09:58:43.152Z,22.63
2023-02-11T10:01:27.806Z,21.50
2023-02-11T10:04:03.628Z,22.85
2023-02-11T10:06:41.099Z,22.95
2023-02-11T10:09:15.823Z,23.33
2023-02-11T10:11:49.365Z,22.10
2023-02-11T10:14:15.156Z,21.08
2023-02-11T10:16:43.807Z,21.48
2023-02-11T10:19:16.071Z,22.05
2023-02-11T10:21:57.854Z,22.23
2023-02-11T10:24:23.713Z,23.10
2023-02-11T10:26:50.806Z,25.00
2023-02-11T10:29:31.460Z,21.52
2023-02-11T10:31:58.631Z,24.17
2023-02-11T10:34:24.399Z,23.13
2023-02-11T10:36:50.108Z,22.83
2023-02-11T10:39:19.990Z,21.83
2023-02-11T10:41:45.752Z,20.10
2023-02-11T10:44:31.361Z,24.60
2023-02-11T10:46:59.142Z,21.38
2023-02-11T10:49:41.962Z,24.50
2023-02-11T10:52:13.928Z,22.45
2023-02-11T10:54:39.936Z,21.60
2023-02-11T10:57:06.839Z,23.83
2023-02-11T10:59:37.057Z,21.73
2023-02-11T11:02:18.472Z,22.40
2023-02-11T11:04:44.809Z,21.92
2023-02-11T11:07:21.366Z,22.60
2023-02-11T11:09:50.055Z,21.52
2023-02-11T11:12:34.614Z,22.48
2023-02-11T11:15:03.580Z,20.88
2023-02-11T11:17:29.619Z,22.02
2023-02-11T11:20:14.599Z,21.60
2023-02-11T11:22:41.148Z,22.08
2023-02-11T11:25:20.176Z,21.50
2023-02-11T11:27:50.306Z,21.67
2023-02-11T11:30:16.567Z,22.67
2023-02-11T11:32:42.990Z,22.92
2023-02-11T11:35:21.134Z,19.73
2023-02-11T11:37:51.823Z,21.35
2023-02-11T11:40:21.274Z,20.13
2023-02-11T11:43:01.054Z,22.08
2023-02-11T11:45:26.774Z,20.05
2023-02-11T11:47:58.044Z,20.98
2023-02-11T11:50:30.526Z,20.52
2023-02-11T11:53:00.523Z,21.88
2023-02-11T11:55:39.408Z,21.88
2023-02-11T11:58:09.848Z,20.90
2023-02-11T12:00:40.557Z,21.00
2023-02-11T12:05:57.195Z,19.30
2023-02-11T12:11:02.514Z,16.83
2023-02-11T12:13:29.243Z,18.35
2023-02-11T12:16:00.786Z,19.00
2023-02-11T12:18:39.330Z,16.90
2023-02-11T12:21:18.140Z,17.17
2023-02-11T12:23:52.896Z,16.13
2023-02-11T12:26:19.828Z,16.58
2023-02-11T12:29:04.565Z,16.63
2023-02-11T12:31:49.152Z,16.65
2023-02-11T12:34:30.014Z,15.35
2023-02-11T12:37:19.435Z,14.23
2023-02-11T12:40:04.164Z,15.15
2023-02-11T12:42:48.408Z,13.50
2023-02-11T12:45:21.800Z,13.77
2023-02-11T12:48:06.595Z,14.88
2023-02-11T12:50:38.710Z,15.05
2023-02-11T12:53:23.464Z,14.52
2023-02-11T12:55:51.721Z,13.07
2023-02-11T12:58:29.645Z,13.88
2023-02-11T13:01:05.873Z,14.65
2023-02-11T13:03:38.630Z,13.80
2023-02-11T13:06:08.632Z,12.57
2023-02-11T13:08:45.824Z,14.82
2023-02-11T13:11:15.628Z,13.48
2023-02-11T13:13:44.222Z,13.35
2023-02-11T13:16:22.110Z,14.07
2023-02-11T13:19:13.585Z,13.88
2023-02-11T13:21:58.545Z,15.00
2023-02-11T13:24:24.508Z,12.38
2023-02-11T13:26:50.310Z,13.15
2023-02-11T13:29:23.500Z,13.65
2023-02-11T13:31:56.714Z,12.45
2023-02-11T13:34:49.437Z,15.15
2023-02-11T13:37:28.334Z,11.82
2023-02-11T13:40:06.308Z,14.38
2023-02-11T13:42:33.610Z,12.35
2023-02-11T13:44:59.998Z,13.55
2023-02-11T13:47:31.602Z,12.55
2023-02-11T13:49:59.042Z,12.38
2023-02-11T13:52:28.466Z,13.45
2023-02-11T13:54:56.023Z,12.63
2023-02-11T13:57:27.269Z,12.77
2023-02-11T14:00:00.907Z,11.50
2023-02-11T14:02:48.530Z,12.27
2023-02-11T14:05:35.972Z,12.30
2023-02-11T14:08:29.657Z,12.07
2023-02-11T14:10:55.426Z,12.32
2023-02-11T14:13:30.374Z,12.27
2023-02-11T14:16:05.165Z,11.07
2023-02-11T14:18:37.191Z,12.75
2023-02-11T14:21:13.936Z,10.75
2023-02-11T14:23:40.650Z,10.18
2023-02-11T14:26:09.262Z,11.00
2023-02-11T14:28:35.518Z,10.52
2023-02-11T14:31:09.736Z,11.40
2023-02-11T14:33:47.501Z,10.20
2023-02-11T14:36:28.905Z,9.43
2023-02-11T14:39:14.173Z,10.00
2023-02-11T14:41:43.825Z,10.15
2023-02-11T14:44:14.844Z,10.50
2023-02-11T14:46:43.564Z,9.93
2023-02-11T14:49:16.121Z,10.18
2023-02-11T14:51:42.037Z,9.38
2023-02-11T14:54:16.590Z,10.52
2023-02-11T14:56:43.752Z,8.90
2023-02-11T14:59:15.801Z,10.65
2023-02-11T15:01:45.162Z,9.13
2023-02-11T15:04:25.053Z,10.27
2023-02-11T15:06:50.867Z,10.55
2023-02-11T15:09:23.581Z,10.75
2023-02-11T15:11:50.640Z,9.82
2023-02-11T15:14:23.395Z,10.07
2023-02-11T15:16:50.466Z,10.07
2023-02-11T15:19:28.858Z,9.90
2023-02-11T15:21:56.223Z,10.85
2023-02-11T15:24:25.253Z,9.60
2023-02-11T15:27:16.388Z,9.10
2023-02-11T15:29:43.724Z,8.77
2023-02-11T15:32:09.678Z,9.52
2023-02-11T15:34:43.592Z,10.13
2023-02-11T15:37:12.618Z,9.55
2023-02-11T15:39:42.559Z,11.00
2023-02-11T15:42:18.842Z,9.55
2023-02-11T15:44:44.836Z,10.02
2023-02-11T15:47:11.406Z,10.90
2023-02-11T15:49:37.701Z,10.38
2023-02-11T15:52:03.818Z,10.75
2023-02-11T15:54:31.561Z,9.57
2023-02-11T15:57:06.345Z,11.40
2023-02-11T15:59:40.211Z,11.00
2023-02-11T16:02:08.563Z,11.20
2023-02-11T16:04:51.361Z,10.40
2023-02-11T16:07:35.861Z,11.35
2023-02-11T16:10:01.839Z,11.55
2023-02-11T16:12:28.831Z,11.27
2023-02-11T16:14:58.508Z,10.90
2023-02-11T16:17:26.887Z,11.30
2023-02-11T16:19:53.158Z,10.88
2023-02-11T16:22:26.895Z,11.65
2023-02-11T16:24:54.939Z,11.25
2023-02-11T16:27:25.607Z,10.70
2023-02-11T16:29:51.791Z,10.85
2023-02-11T16:32:19.437Z,11.50
2023-02-11T16:34:48.407Z,10.48
2023-02-11T16:37:14.386Z,9.90
2023-02-11T16:39:40.454Z,11.80
2023-02-11T16:42:07.614Z,11.68
2023-02-11T16:44:34.610Z,11.30
2023-02-11T16:47:02.643Z,10.05
2023-02-11T16:49:30.743Z,10.05
2023-02-11T16:52:00.570Z,10.45
2023-02-11T16:54:27.173Z,10.57
2023-02-11T16:56:52.908Z,10.02
2023-02-11T16:59:18.781Z,10.15
2023-02-11T17:01:45.174Z,9.77
2023-02-11T17:04:16.082Z,9.35
2023-02-11T17:06:42.503Z,9.38
2023-02-11T17:09:10.336Z,9.45
2023-02-11T17:11:36.345Z,11.02
2023-02-11T17:14:02.187Z,10.05
2023-02-11T17:16:29.240Z,8.55
2023-02-11T17:18:55.097Z,9.48
2023-02-11T17:21:20.887Z,8.88
2023-02-11T17:23:46.718Z,8.93
2023-02-11T17:26:12.725Z,8.52
2023-02-11T17:28:38.614Z,8.63
2023-02-11T17:31:08.835Z,9.48
2023-02-11T17:33:36.250Z,8.43
2023-02-11T17:36:06.195Z,8.13
2023-02-11T17:38:32.033Z,8.00
2023-02-11T17:40:58.306Z,8.07
2023-02-11T17:43:24.462Z,7.90
2023-02-11T17:45:50.562Z,8.90
2023-02-11T17:48:16.546Z,9.05
2023-02-11T17:50:42.580Z,8.00
2023-02-11T17:53:08.308Z,8.18
2023-02-11T17:55:34.687Z,7.32
2023-02-11T17:58:01.068Z,7.85
2023-02-11T18:00:27.794Z,8.35
2023-02-11T18:02:56.476Z,7.50
2023-02-11T18:05:25.998Z,9.25
2023-02-11T18:07:51.752Z,8.40
2023-02-11T18:10:17.711Z,7.90
2023-02-11T18:12:43.583Z,8.80
2023-02-11T18:15:09.579Z,8.57
2023-02-11T18:17:35.326Z,8.70
2023-02-11T18:20:03.343Z,8.52
2023-02-11T18:22:33.102Z,7.72
2023-02-11T18:25:00.047Z,8.80
2023-02-11T18:27:27.425Z,7.80
2023-02-11T18:29:53.414Z,7.72
2023-02-11T18:32:19.263Z,8.20
2023-02-11T18:34:54.450Z,8.45
2023-02-11T18:37:20.462Z,7.80
2023-02-11T18:39:46.325Z,8.55
2023-02-11T18:42:12.098Z,7.90
2023-02-11T18:44:37.851Z,7.55
2023-02-11T18:47:03.854Z,6.97
2023-02-11T18:49:29.692Z,8.23
2023-02-11T18:51:58.011Z,6.93
2023-02-11T18:54:23.923Z,7.30
2023-02-11T18:56:49.815Z,7.10
2023-02-11T18:59:15.626Z,7.43
2023-02-11T19:01:42.793Z,7.43
2023-02-11T19:04:08.639Z,7.93
2023-02-11T19:06:41.771Z,6.75
2023-02-11T19:09:09.248Z,7.45
2023-02-11T19:11:49.103Z,6.95
2023-02-11T19:14:22.469Z,7.20
2023-02-11T19:16:50.112Z,7.20
2023-02-11T19:19:16.851Z,7.63
2023-02-11T19:21:43.386Z,7.95
2023-02-11T19:24:09.585Z,6.65
2023-02-11T19:26:36.445Z,7.30
2023-02-11T19:29:02.709Z,7.80
2023-02-11T19:31:31.449Z,7.82
2023-02-11T19:33:59.261Z,8.25
2023-02-11T19:36:25.214Z,7.57
2023-02-11T19:38:51.025Z,7.57
2023-02-11T19:41:21.344Z,7.70
2023-02-11T19:43:53.376Z,7.15
2023-02-11T19:46:20.569Z,8.10
2023-02-11T19:48:46.829Z,6.90
2023-02-11T19:51:13.416Z,6.88
2023-02-11T19:53:39.803Z,6.95
2023-02-11T19:56:07.168Z,6.97
2023-02-11T19:58:33.699Z,7.25
2023-02-11T20:01:05.707Z,7.80
2023-02-11T20:03:31.669Z,6.95
2023-02-11T20:06:08.424Z,6.95
2023-02-11T20:08:34.246Z,7.03
2023-02-11T20:11:11.016Z,7.25
2023-02-11T20:13:37.568Z,7.28
2023-02-11T20:16:04.868Z,7.10
2023-02-11T20:18:30.674Z,6.65
2023-02-11T20:20:56.543Z,7.07
2023-02-11T20:23:22.306Z,7.38
2023-02-11T20:25:48.239Z,6.57
2023-02-11T20:28:14.150Z,6.00
2023-02-11T20:30:40.089Z,7.88
2023-02-11T20:33:05.815Z,7.50
2023-02-11T20:35:31.696Z,7.15
2023-02-11T20:37:57.444Z,7.07
2023-02-11T20:40:23.252Z,6.70
2023-02-11T20:42:49.109Z,7.68
2023-02-11T20:45:15.027Z,7.50
2023-02-11T20:47:41.856Z,6.15
2023-02-11T20:50:08.236Z,5.72
2023-02-11T20:52:33.938Z,5.75
2023-02-11T20:55:00.998Z,7.78
2023-02-11T20:57:27.865Z,6.63
2023-02-11T20:59:53.779Z,6.32
2023-02-11T21:02:19.755Z,7.10
2023-02-11T21:04:48.500Z,6.22
2023-02-11T21:07:14.223Z,6.20
2023-02-11T21:09:40.012Z,7.72
2023-02-11T21:12:06.861Z,6.88
2023-02-11T21:14:33.387Z,6.55
2023-02-11T21:16:59.419Z,6.78
2023-02-11T21:19:25.618Z,6.28
2023-02-11T21:21:54.298Z,5.50
2023-02-11T21:24:20.324Z,5.72
2023-02-11T21:26:46.122Z,6.45
2023-02-11T21:29:11.903Z,6.80
2023-02-11T21:31:38.103Z,6.13
2023-02-11T21:34:04.115Z,6.47
2023-02-11T21:36:39.138Z,6.07
2023-02-11T21:39:06.606Z,6.30
2023-02-11T21:41:32.405Z,5.90
2023-02-11T21:43:58.489Z,5.90
2023-02-11T21:46:24.356Z,6.90
2023-02-11T21:48:50.378Z,5.43
2023-02-11T21:51:17.362Z,5.80
2023-02-11T21:53:43.135Z,4.95
2023-02-11T21:56:15.349Z,6.47
2023-02-11T21:58:41.552Z,5.30
2023-02-11T22:01:15.013Z,5.18
2023-02-11T22:03:41.169Z,5.18
2023-02-11T22:06:07.904Z,5.60
2023-02-11T22:08:33.624Z,4.68
2023-02-11T22:11:03.726Z,6.00
2023-02-11T22:13:29.632Z,4.90
2023-02-11T22:15:59.307Z,5.18
2023-02-11T22:18:25.280Z,4.97
2023-02-11T22:21:17.389Z,4.95
2023-02-11T22:23:43.323Z,5.60
2023-02-11T22:26:10.856Z,5.30
2023-02-11T22:28:38.398Z,4.32
2023-02-11T22:31:04.641Z,5.28
2023-02-11T22:33:30.447Z,3.90
2023-02-11T22:36:03.985Z,4.95
2023-02-11T22:38:30.996Z,4.45
2023-02-11T22:40:57.643Z,5.25
2023-02-11T22:43:23.737Z,5.13
2023-02-11T22:45:50.276Z,5.45
2023-02-11T22:48:16.209Z,4.75
2023-02-11T22:50:42.000Z,5.13
2023-02-11T22:53:08.036Z,5.28
2023-02-11T22:55:37.766Z,5.03
2023-02-11T22:58:03.799Z,5.10
2023-02-11T23:00:30.808Z,5.03
2023-02-11T23:02:56.664Z,4.03
2023-02-11T23:05:22.637Z,5.15
2023-02-11T23:07:48.651Z,4.55
2023-02-11T23:10:14.463Z,4.60
2023-02-11T23:12:40.210Z,4.47
2023-02-11T23:15:06.896Z,5.05
2023-02-11T23:17:32.632Z,4.35
2023-02-11T23:19:58.318Z,3.70
2023-02-11T23:22:24.121Z,4.40
2023-02-11T23:24:49.967Z,4.80
2023-02-11T23:27:15.716Z,4.30
2023-02-11T23:29:41.611Z,5.05
2023-02-11T23:32:07.566Z,3.95
2023-02-11T23:34:33.305Z,3.85
2023-02-11T23:36:59.143Z,3.78
2023-02-11T23:39:25.088Z,4.35
2023-02-11T23:41:51.828Z,4.07
2023-02-11T23:44:18.024Z,3.17
2023-02-11T23:46:43.791Z,3.67
2023-02-11T23:49:09.574Z,3.40
2023-02-11T23:51:35.306Z,3.00
2023-02-11T23:54:01.810Z,3.13
2023-02-11T23:56:27.798Z,3.78
2023-02-11T23:58:54.836Z,4.28
